sensor_id;sensor_type;location;lat;lon;timestamp;P1;durP1;ratioP1;P2;durP2;ratioP2
21152;SDS011;10734;44.792;20.482;2023-05-07T00:00:21;7.90;;;4.13;;
21152;SDS011;10734;44.792;20.482;2023-05-07T00:02:47;12.75;;;4.22;;
21152;SDS011;10734;44.792;20.482;2023-05-07T00:05:14;7.63;;;3.97;;
21152;SDS011;10734;44.792;20.482;2023-05-07T00:07:41;6.65;;;3.97;;
21152;SDS011;10734;44.792;20.482;2023-05-07T00:10:09;6.15;;;3.88;;
21152;SDS011;10734;44.792;20.482;2023-05-07T00:12:37;7.47;;;4.15;;
21152;SDS011;10734;44.792;20.482;2023-05-07T00:15:04;7.38;;;3.72;;
21152;SDS011;10734;44.792;20.482;2023-05-07T00:17:32;4.78;;;3.58;;
21152;SDS011;10734;44.792;20.482;2023-05-07T00:19:59;7.43;;;3.80;;
21152;SDS011;10734;44.792;20.482;2023-05-07T00:22:26;11.30;;;3.95;;
21152;SDS011;10734;44.792;20.482;2023-05-07T00:24:53;5.10;;;3.22;;
21152;SDS011;10734;44.792;20.482;2023-05-07T00:27:20;5.85;;;3.35;;
21152;SDS011;10734;44.792;20.482;2023-05-07T00:29:46;8.98;;;3.75;;
21152;SDS011;10734;44.792;20.482;2023-05-07T00:32:13;11.02;;;3.55;;
21152;SDS011;10734;44.792;20.482;2023-05-07T00:34:40;7.47;;;3.70;;
21152;SDS011;10734;44.792;20.482;2023-05-07T00:37:07;6.22;;;3.50;;
21152;SDS011;10734;44.792;20.482;2023-05-07T00:39:34;6.68;;;3.25;;
21152;SDS011;10734;44.792;20.482;2023-05-07T00:42:01;4.90;;;3.28;;
21152;SDS011;10734;44.792;20.482;2023-05-07T00:44:29;6.95;;;3.05;;
21152;SDS011;10734;44.792;20.482;2023-05-07T00:46:57;4.65;;;2.88;;
21152;SDS011;10734;44.792;20.482;2023-05-07T00:49:30;6.97;;;3.15;;
21152;SDS011;10734;44.792;20.482;2023-05-07T00:52:11;6.53;;;2.97;;
21152;SDS011;10734;44.792;20.482;2023-05-07T00:54:40;9.10;;;3.42;;
21152;SDS011;10734;44.792;20.482;2023-05-07T00:57:08;7.05;;;3.45;;
21152;SDS011;10734;44.792;20.482;2023-05-07T00:59:37;5.90;;;3.70;;
21152;SDS011;10734;44.792;20.482;2023-05-07T01:02:04;6.60;;;3.28;;
21152;SDS011;10734;44.792;20.482;2023-05-07T01:04:31;12.70;;;3.60;;
21152;SDS011;10734;44.792;20.482;2023-05-07T01:06:58;6.95;;;3.40;;
21152;SDS011;10734;44.792;20.482;2023-05-07T01:09:27;5.53;;;3.40;;
21152;SDS011;10734;44.792;20.482;2023-05-07T01:11:54;6.03;;;3.13;;
21152;SDS011;10734;44.792;20.482;2023-05-07T01:14:23;8.73;;;3.22;;
21152;SDS011;10734;44.792;20.482;2023-05-07T01:16:52;7.82;;;3.45;;
21152;SDS011;10734;44.792;20.482;2023-05-07T01:19:19;6.40;;;3.22;;
21152;SDS011;10734;44.792;20.482;2023-05-07T01:21:47;3.83;;;2.50;;
21152;SDS011;10734;44.792;20.482;2023-05-07T01:24:15;9.50;;;2.90;;
21152;SDS011;10734;44.792;20.482;2023-05-07T01:26:42;8.98;;;3.40;;
21152;SDS011;10734;44.792;20.482;2023-05-07T01:29:10;7.00;;;3.38;;
21152;SDS011;10734;44.792;20.482;2023-05-07T01:31:38;3.53;;;3.10;;
21152;SDS011;10734;44.792;20.482;2023-05-07T01:34:08;7.85;;;3.58;;
21152;SDS011;10734;44.792;20.482;2023-05-07T01:36:38;6.38;;;3.63;;
21152;SDS011;10734;44.792;20.482;2023-05-07T01:39:08;5.35;;;3.42;;
21152;SDS011;10734;44.792;20.482;2023-05-07T01:41:36;5.30;;;3.33;;
21152;SDS011;10734;44.792;20.482;2023-05-07T01:44:03;3.40;;;3.10;;
21152;SDS011;10734;44.792;20.482;2023-05-07T01:46:31;5.35;;;3.28;;
21152;SDS011;10734;44.792;20.482;2023-05-07T01:48:59;7.10;;;3.75;;
21152;SDS011;10734;44.792;20.482;2023-05-07T01:51:26;8.27;;;4.32;;
21152;SDS011;10734;44.792;20.482;2023-05-07T01:53:53;7.13;;;3.15;;
21152;SDS011;10734;44.792;20.482;2023-05-07T01:56:20;6.13;;;3.58;;
21152;SDS011;10734;44.792;20.482;2023-05-07T01:58:48;3.97;;;3.20;;
21152;SDS011;10734;44.792;20.482;2023-05-07T02:01:17;6.85;;;3.35;;
21152;SDS011;10734;44.792;20.482;2023-05-07T02:03:44;4.20;;;3.25;;
21152;SDS011;10734;44.792;20.482;2023-05-07T02:06:11;6.20;;;2.78;;
21152;SDS011;10734;44.792;20.482;2023-05-07T02:08:38;7.28;;;3.63;;
21152;SDS011;10734;44.792;20.482;2023-05-07T02:11:05;5.22;;;3.42;;
21152;SDS011;10734;44.792;20.482;2023-05-07T02:13:32;5.30;;;3.30;;
21152;SDS011;10734;44.792;20.482;2023-05-07T02:16:01;10.63;;;2.97;;
21152;SDS011;10734;44.792;20.482;2023-05-07T02:18:28;4.95;;;3.33;;
21152;SDS011;10734;44.792;20.482;2023-05-07T02:20:55;6.07;;;3.22;;
21152;SDS011;10734;44.792;20.482;2023-05-07T02:23:22;4.18;;;3.30;;
21152;SDS011;10734;44.792;20.482;2023-05-07T02:25:49;6.38;;;3.42;;
21152;SDS011;10734;44.792;20.482;2023-05-07T02:28:16;9.57;;;3.17;;
21152;SDS011;10734;44.792;20.482;2023-05-07T02:30:42;6.30;;;4.03;;
21152;SDS011;10734;44.792;20.482;2023-05-07T02:33:09;11.48;;;4.07;;
21152;SDS011;10734;44.792;20.482;2023-05-07T02:35:38;7.43;;;3.70;;
21152;SDS011;10734;44.792;20.482;2023-05-07T02:38:05;8.68;;;4.30;;
21152;SDS011;10734;44.792;20.482;2023-05-07T02:40:32;6.22;;;3.60;;
21152;SDS011;10734;44.792;20.482;2023-05-07T02:43:05;8.23;;;3.80;;
21152;SDS011;10734;44.792;20.482;2023-05-07T02:45:32;6.75;;;3.45;;
21152;SDS011;10734;44.792;20.482;2023-05-07T02:47:59;6.72;;;3.33;;
21152;SDS011;10734;44.792;20.482;2023-05-07T02:50:26;8.50;;;3.47;;
21152;SDS011;10734;44.792;20.482;2023-05-07T02:52:53;7.45;;;3.30;;
21152;SDS011;10734;44.792;20.482;2023-05-07T02:55:20;5.97;;;3.85;;
21152;SDS011;10734;44.792;20.482;2023-05-07T02:57:47;6.55;;;3.35;;
21152;SDS011;10734;44.792;20.482;2023-05-07T03:00:15;7.45;;;3.45;;
21152;SDS011;10734;44.792;20.482;2023-05-07T03:02:44;5.68;;;3.72;;
21152;SDS011;10734;44.792;20.482;2023-05-07T03:05:11;7.50;;;3.35;;
21152;SDS011;10734;44.792;20.482;2023-05-07T03:07:39;6.55;;;3.75;;
21152;SDS011;10734;44.792;20.482;2023-05-07T03:10:07;6.70;;;3.53;;
21152;SDS011;10734;44.792;20.482;2023-05-07T03:12:34;7.70;;;3.47;;
21152;SDS011;10734;44.792;20.482;2023-05-07T03:15:01;7.22;;;4.13;;
21152;SDS011;10734;44.792;20.482;2023-05-07T03:17:28;9.88;;;4.10;;
21152;SDS011;10734;44.792;20.482;2023-05-07T03:19:55;7.88;;;4.15;;
21152;SDS011;10734;44.792;20.482;2023-05-07T03:22:21;6.57;;;3.90;;
21152;SDS011;10734;44.792;20.482;2023-05-07T03:24:48;7.05;;;4.38;;
21152;SDS011;10734;44.792;20.482;2023-05-07T03:27:15;10.13;;;4.20;;
21152;SDS011;10734;44.792;20.482;2023-05-07T03:29:41;6.90;;;4.35;;
21152;SDS011;10734;44.792;20.482;2023-05-07T03:32:08;7.93;;;4.40;;
21152;SDS011;10734;44.792;20.482;2023-05-07T03:34:35;6.07;;;4.00;;
21152;SDS011;10734;44.792;20.482;2023-05-07T03:37:01;9.57;;;4.15;;
21152;SDS011;10734;44.792;20.482;2023-05-07T03:39:28;6.68;;;3.65;;
21152;SDS011;10734;44.792;20.482;2023-05-07T03:41:55;6.18;;;3.70;;
21152;SDS011;10734;44.792;20.482;2023-05-07T03:44:21;5.07;;;3.10;;
21152;SDS011;10734;44.792;20.482;2023-05-07T03:46:48;5.45;;;3.17;;
21152;SDS011;10734;44.792;20.482;2023-05-07T03:49:15;10.45;;;3.67;;
21152;SDS011;10734;44.792;20.482;2023-05-07T03:51:42;6.70;;;4.15;;
21152;SDS011;10734;44.792;20.482;2023-05-07T03:54:08;7.45;;;3.28;;
21152;SDS011;10734;44.792;20.482;2023-05-07T03:56:35;7.38;;;3.40;;
21152;SDS011;10734;44.792;20.482;2023-05-07T03:59:02;7.03;;;3.95;;
21152;SDS011;10734;44.792;20.482;2023-05-07T04:01:29;6.03;;;3.25;;
21152;SDS011;10734;44.792;20.482;2023-05-07T04:03:55;5.47;;;3.40;;
21152;SDS011;10734;44.792;20.482;2023-05-07T04:06:22;5.35;;;3.63;;
21152;SDS011;10734;44.792;20.482;2023-05-07T04:08:49;4.25;;;3.25;;
21152;SDS011;10734;44.792;20.482;2023-05-07T04:11:16;4.88;;;3.60;;
21152;SDS011;10734;44.792;20.482;2023-05-07T04:13:43;5.03;;;3.28;;
21152;SDS011;10734;44.792;20.482;2023-05-07T04:16:09;9.43;;;3.22;;
21152;SDS011;10734;44.792;20.482;2023-05-07T04:18:36;6.57;;;3.60;;
21152;SDS011;10734;44.792;20.482;2023-05-07T04:21:03;7.57;;;3.40;;
21152;SDS011;10734;44.792;20.482;2023-05-07T04:23:30;7.80;;;3.75;;
21152;SDS011;10734;44.792;20.482;2023-05-07T04:25:57;4.20;;;3.33;;
21152;SDS011;10734;44.792;20.482;2023-05-07T04:28:23;8.70;;;3.63;;
21152;SDS011;10734;44.792;20.482;2023-05-07T04:30:50;6.88;;;3.40;;
21152;SDS011;10734;44.792;20.482;2023-05-07T04:33:17;6.68;;;2.92;;
21152;SDS011;10734;44.792;20.482;2023-05-07T04:35:44;7.07;;;3.28;;
21152;SDS011;10734;44.792;20.482;2023-05-07T04:38:11;6.38;;;3.38;;
21152;SDS011;10734;44.792;20.482;2023-05-07T04:40:37;4.63;;;2.90;;
21152;SDS011;10734;44.792;20.482;2023-05-07T04:43:05;4.63;;;2.80;;
21152;SDS011;10734;44.792;20.482;2023-05-07T04:45:33;5.80;;;2.85;;
21152;SDS011;10734;44.792;20.482;2023-05-07T04:48:00;6.00;;;3.05;;
21152;SDS011;10734;44.792;20.482;2023-05-07T04:50:27;6.50;;;3.08;;
21152;SDS011;10734;44.792;20.482;2023-05-07T04:52:54;5.57;;;3.38;;
21152;SDS011;10734;44.792;20.482;2023-05-07T04:55:20;6.90;;;3.35;;
21152;SDS011;10734;44.792;20.482;2023-05-07T04:57:48;3.92;;;3.35;;
21152;SDS011;10734;44.792;20.482;2023-05-07T05:00:15;7.47;;;3.60;;
21152;SDS011;10734;44.792;20.482;2023-05-07T05:02:42;5.47;;;3.28;;
21152;SDS011;10734;44.792;20.482;2023-05-07T05:05:09;4.78;;;3.30;;
21152;SDS011;10734;44.792;20.482;2023-05-07T05:07:36;4.85;;;2.92;;
21152;SDS011;10734;44.792;20.482;2023-05-07T05:10:04;4.07;;;2.80;;
21152;SDS011;10734;44.792;20.482;2023-05-07T05:12:32;6.38;;;3.13;;
21152;SDS011;10734;44.792;20.482;2023-05-07T05:14:58;8.02;;;3.45;;
21152;SDS011;10734;44.792;20.482;2023-05-07T05:17:25;7.03;;;3.38;;
21152;SDS011;10734;44.792;20.482;2023-05-07T05:19:52;8.00;;;3.00;;
21152;SDS011;10734;44.792;20.482;2023-05-07T05:22:18;5.35;;;2.90;;
21152;SDS011;10734;44.792;20.482;2023-05-07T05:24:46;7.50;;;3.42;;
21152;SDS011;10734;44.792;20.482;2023-05-07T05:27:13;5.13;;;3.53;;
21152;SDS011;10734;44.792;20.482;2023-05-07T05:29:40;4.85;;;2.83;;
21152;SDS011;10734;44.792;20.482;2023-05-07T05:32:06;5.10;;;3.30;;
21152;SDS011;10734;44.792;20.482;2023-05-07T05:34:33;5.40;;;3.30;;
21152;SDS011;10734;44.792;20.482;2023-05-07T05:37:00;5.28;;;4.00;;
21152;SDS011;10734;44.792;20.482;2023-05-07T05:39:27;7.88;;;3.10;;
21152;SDS011;10734;44.792;20.482;2023-05-07T05:41:53;5.38;;;3.20;;
21152;SDS011;10734;44.792;20.482;2023-05-07T05:44:20;8.00;;;3.13;;
21152;SDS011;10734;44.792;20.482;2023-05-07T05:46:47;6.43;;;3.40;;
21152;SDS011;10734;44.792;20.482;2023-05-07T05:49:16;5.18;;;3.05;;
21152;SDS011;10734;44.792;20.482;2023-05-07T05:51:42;5.53;;;3.33;;
21152;SDS011;10734;44.792;20.482;2023-05-07T05:54:09;6.00;;;2.97;;
21152;SDS011;10734;44.792;20.482;2023-05-07T05:56:36;4.75;;;3.35;;
21152;SDS011;10734;44.792;20.482;2023-05-07T05:59:03;7.82;;;2.95;;
21152;SDS011;10734;44.792;20.482;2023-05-07T06:01:30;11.18;;;3.47;;
21152;SDS011;10734;44.792;20.482;2023-05-07T06:03:57;5.03;;;3.20;;
21152;SDS011;10734;44.792;20.482;2023-05-07T06:06:24;4.78;;;3.20;;
21152;SDS011;10734;44.792;20.482;2023-05-07T06:08:50;5.03;;;2.97;;
21152;SDS011;10734;44.792;20.482;2023-05-07T06:11:17;9.13;;;3.65;;
21152;SDS011;10734;44.792;20.482;2023-05-07T06:13:44;6.05;;;3.13;;
21152;SDS011;10734;44.792;20.482;2023-05-07T06:16:10;14.48;;;3.83;;
21152;SDS011;10734;44.792;20.482;2023-05-07T06:18:37;7.93;;;3.13;;
21152;SDS011;10734;44.792;20.482;2023-05-07T06:21:04;4.00;;;2.67;;
21152;SDS011;10734;44.792;20.482;2023-05-07T06:23:31;4.65;;;2.80;;
21152;SDS011;10734;44.792;20.482;2023-05-07T06:25:58;5.72;;;2.60;;
21152;SDS011;10734;44.792;20.482;2023-05-07T06:28:24;6.97;;;3.25;;
21152;SDS011;10734;44.792;20.482;2023-05-07T06:30:51;5.13;;;3.03;;
21152;SDS011;10734;44.792;20.482;2023-05-07T06:33:18;4.03;;;2.63;;
21152;SDS011;10734;44.792;20.482;2023-05-07T06:35:46;7.00;;;3.33;;
21152;SDS011;10734;44.792;20.482;2023-05-07T06:38:13;9.45;;;6.70;;
21152;SDS011;10734;44.792;20.482;2023-05-07T06:40:40;8.68;;;6.10;;
21152;SDS011;10734;44.792;20.482;2023-05-07T06:43:07;10.05;;;3.35;;
21152;SDS011;10734;44.792;20.482;2023-05-07T06:45:33;6.60;;;2.83;;
21152;SDS011;10734;44.792;20.482;2023-05-07T06:48:00;7.13;;;3.22;;
21152;SDS011;10734;44.792;20.482;2023-05-07T06:50:27;5.15;;;2.80;;
21152;SDS011;10734;44.792;20.482;2023-05-07T06:52:54;8.75;;;3.20;;
21152;SDS011;10734;44.792;20.482;2023-05-07T06:55:21;12.38;;;3.42;;
21152;SDS011;10734;44.792;20.482;2023-05-07T06:57:48;7.88;;;3.45;;
21152;SDS011;10734;44.792;20.482;2023-05-07T07:00:14;9.80;;;3.67;;
21152;SDS011;10734;44.792;20.482;2023-05-07T07:02:41;5.03;;;3.20;;
21152;SDS011;10734;44.792;20.482;2023-05-07T07:05:08;5.00;;;3.55;;
21152;SDS011;10734;44.792;20.482;2023-05-07T07:07:35;4.88;;;3.25;;
21152;SDS011;10734;44.792;20.482;2023-05-07T07:10:02;12.02;;;3.60;;
21152;SDS011;10734;44.792;20.482;2023-05-07T07:12:31;6.78;;;3.35;;
21152;SDS011;10734;44.792;20.482;2023-05-07T07:14:57;7.07;;;2.70;;
21152;SDS011;10734;44.792;20.482;2023-05-07T07:17:24;5.38;;;3.10;;
21152;SDS011;10734;44.792;20.482;2023-05-07T07:19:51;5.07;;;3.53;;
21152;SDS011;10734;44.792;20.482;2023-05-07T07:22:18;10.32;;;2.72;;
21152;SDS011;10734;44.792;20.482;2023-05-07T07:24:44;6.65;;;2.47;;
21152;SDS011;10734;44.792;20.482;2023-05-07T07:27:11;6.20;;;2.50;;
21152;SDS011;10734;44.792;20.482;2023-05-07T07:29:38;8.65;;;2.97;;
21152;SDS011;10734;44.792;20.482;2023-05-07T07:32:07;4.57;;;2.40;;
21152;SDS011;10734;44.792;20.482;2023-05-07T07:34:34;6.25;;;2.42;;
21152;SDS011;10734;44.792;20.482;2023-05-07T07:37:01;3.55;;;2.42;;
21152;SDS011;10734;44.792;20.482;2023-05-07T07:39:31;4.80;;;2.70;;
21152;SDS011;10734;44.792;20.482;2023-05-07T07:41:59;4.28;;;2.30;;
21152;SDS011;10734;44.792;20.482;2023-05-07T07:44:27;8.32;;;2.22;;
21152;SDS011;10734;44.792;20.482;2023-05-07T07:46:54;4.50;;;2.17;;
21152;SDS011;10734;44.792;20.482;2023-05-07T07:49:21;5.63;;;2.42;;
21152;SDS011;10734;44.792;20.482;2023-05-07T07:51:48;4.55;;;2.28;;
21152;SDS011;10734;44.792;20.482;2023-05-07T07:54:15;2.83;;;2.47;;
21152;SDS011;10734;44.792;20.482;2023-05-07T07:56:42;7.10;;;2.40;;
21152;SDS011;10734;44.792;20.482;2023-05-07T07:59:08;4.32;;;2.65;;
21152;SDS011;10734;44.792;20.482;2023-05-07T08:01:37;10.02;;;2.90;;
21152;SDS011;10734;44.792;20.482;2023-05-07T08:04:04;7.53;;;3.20;;
21152;SDS011;10734;44.792;20.482;2023-05-07T08:06:31;4.90;;;2.75;;
21152;SDS011;10734;44.792;20.482;2023-05-07T08:08:58;4.13;;;2.40;;
21152;SDS011;10734;44.792;20.482;2023-05-07T08:11:25;6.13;;;2.65;;
21152;SDS011;10734;44.792;20.482;2023-05-07T08:13:52;4.78;;;2.67;;
21152;SDS011;10734;44.792;20.482;2023-05-07T08:16:19;5.97;;;2.33;;
21152;SDS011;10734;44.792;20.482;2023-05-07T08:18:47;3.47;;;2.30;;
21152;SDS011;10734;44.792;20.482;2023-05-07T08:21:14;5.82;;;3.03;;
21152;SDS011;10734;44.792;20.482;2023-05-07T08:23:41;5.10;;;3.13;;
21152;SDS011;10734;44.792;20.482;2023-05-07T08:26:08;4.20;;;2.70;;
21152;SDS011;10734;44.792;20.482;2023-05-07T08:28:35;6.57;;;2.40;;
21152;SDS011;10734;44.792;20.482;2023-05-07T08:31:02;11.52;;;2.58;;
21152;SDS011;10734;44.792;20.482;2023-05-07T08:33:28;5.95;;;2.67;;
21152;SDS011;10734;44.792;20.482;2023-05-07T08:35:55;4.45;;;2.50;;
21152;SDS011;10734;44.792;20.482;2023-05-07T08:38:22;5.35;;;2.35;;
21152;SDS011;10734;44.792;20.482;2023-05-07T08:40:48;3.17;;;2.08;;
21152;SDS011;10734;44.792;20.482;2023-05-07T08:43:15;8.63;;;3.22;;
21152;SDS011;10734;44.792;20.482;2023-05-07T08:45:45;5.22;;;2.65;;
21152;SDS011;10734;44.792;20.482;2023-05-07T08:48:15;9.35;;;2.40;;
21152;SDS011;10734;44.792;20.482;2023-05-07T08:50:43;5.13;;;2.42;;
21152;SDS011;10734;44.792;20.482;2023-05-07T08:53:09;2.90;;;2.35;;
21152;SDS011;10734;44.792;20.482;2023-05-07T08:55:36;6.60;;;2.40;;
21152;SDS011;10734;44.792;20.482;2023-05-07T08:58:03;5.55;;;2.35;;
21152;SDS011;10734;44.792;20.482;2023-05-07T09:00:30;6.32;;;2.58;;
21152;SDS011;10734;44.792;20.482;2023-05-07T09:02:57;3.35;;;2.15;;
21152;SDS011;10734;44.792;20.482;2023-05-07T09:05:23;6.10;;;2.30;;
21152;SDS011;10734;44.792;20.482;2023-05-07T09:07:50;6.32;;;2.75;;
21152;SDS011;10734;44.792;20.482;2023-05-07T09:10:20;5.35;;;2.90;;
21152;SDS011;10734;44.792;20.482;2023-05-07T09:12:47;6.00;;;2.65;;
21152;SDS011;10734;44.792;20.482;2023-05-07T09:15:14;4.43;;;2.20;;
21152;SDS011;10734;44.792;20.482;2023-05-07T09:17:41;3.92;;;2.50;;
21152;SDS011;10734;44.792;20.482;2023-05-07T09:20:09;8.35;;;2.85;;
21152;SDS011;10734;44.792;20.482;2023-05-07T09:22:37;7.68;;;2.60;;
21152;SDS011;10734;44.792;20.482;2023-05-07T09:25:05;5.78;;;2.40;;
21152;SDS011;10734;44.792;20.482;2023-05-07T09:27:33;7.25;;;2.60;;
21152;SDS011;10734;44.792;20.482;2023-05-07T09:30:02;6.88;;;2.47;;
21152;SDS011;10734;44.792;20.482;2023-05-07T09:32:30;4.70;;;2.40;;
21152;SDS011;10734;44.792;20.482;2023-05-07T09:35:01;4.07;;;2.63;;
21152;SDS011;10734;44.792;20.482;2023-05-07T09:37:30;5.22;;;2.30;;
21152;SDS011;10734;44.792;20.482;2023-05-07T09:39:58;6.57;;;2.80;;
21152;SDS011;10734;44.792;20.482;2023-05-07T09:42:25;6.00;;;2.22;;
21152;SDS011;10734;44.792;20.482;2023-05-07T09:44:53;4.38;;;2.15;;
21152;SDS011;10734;44.792;20.482;2023-05-07T09:47:20;2.53;;;2.20;;
21152;SDS011;10734;44.792;20.482;2023-05-07T09:49:49;6.25;;;2.60;;
21152;SDS011;10734;44.792;20.482;2023-05-07T09:52:16;4.82;;;2.38;;
21152;SDS011;10734;44.792;20.482;2023-05-07T09:54:43;7.03;;;2.33;;
21152;SDS011;10734;44.792;20.482;2023-05-07T09:57:13;3.28;;;2.22;;
21152;SDS011;10734;44.792;20.482;2023-05-07T09:59:42;5.63;;;2.17;;
21152;SDS011;10734;44.792;20.482;2023-05-07T10:02:10;7.32;;;2.75;;
21152;SDS011;10734;44.792;20.482;2023-05-07T10:04:37;3.58;;;2.70;;
21152;SDS011;10734;44.792;20.482;2023-05-07T10:07:05;4.70;;;2.50;;
21152;SDS011;10734;44.792;20.482;2023-05-07T10:09:34;4.35;;;2.42;;
21152;SDS011;10734;44.792;20.482;2023-05-07T10:12:05;4.45;;;2.45;;
21152;SDS011;10734;44.792;20.482;2023-05-07T10:14:33;3.42;;;2.30;;
21152;SDS011;10734;44.792;20.482;2023-05-07T10:17:00;4.25;;;2.83;;
21152;SDS011;10734;44.792;20.482;2023-05-07T10:19:29;5.47;;;2.47;;
21152;SDS011;10734;44.792;20.482;2023-05-07T10:21:59;4.53;;;2.78;;
21152;SDS011;10734;44.792;20.482;2023-05-07T10:24:30;6.10;;;2.72;;
21152;SDS011;10734;44.792;20.482;2023-05-07T10:27:00;8.00;;;2.47;;
21152;SDS011;10734;44.792;20.482;2023-05-07T10:29:31;6.13;;;2.80;;
21152;SDS011;10734;44.792;20.482;2023-05-07T10:34:36;5.93;;;2.60;;
21152;SDS011;10734;44.792;20.482;2023-05-07T10:37:06;5.03;;;2.90;;
21152;SDS011;10734;44.792;20.482;2023-05-07T10:39:34;3.08;;;2.60;;
21152;SDS011;10734;44.792;20.482;2023-05-07T10:42:08;6.20;;;2.78;;
21152;SDS011;10734;44.792;20.482;2023-05-07T10:44:36;3.70;;;2.33;;
21152;SDS011;10734;44.792;20.482;2023-05-07T10:47:07;3.83;;;2.75;;
21152;SDS011;10734;44.792;20.482;2023-05-07T10:49:36;4.75;;;2.97;;
21152;SDS011;10734;44.792;20.482;2023-05-07T10:52:24;4.18;;;2.60;;
21152;SDS011;10734;44.792;20.482;2023-05-07T10:57:41;5.85;;;3.08;;
21152;SDS011;10734;44.792;20.482;2023-05-07T11:03:04;5.88;;;2.50;;
21152;SDS011;10734;44.792;20.482;2023-05-07T11:05:33;4.75;;;2.50;;
21152;SDS011;10734;44.792;20.482;2023-05-07T11:10:50;4.80;;;2.35;;
21152;SDS011;10734;44.792;20.482;2023-05-07T11:13:18;3.33;;;2.50;;
21152;SDS011;10734;44.792;20.482;2023-05-07T11:16:09;6.18;;;3.08;;
21152;SDS011;10734;44.792;20.482;2023-05-07T11:18:47;5.10;;;2.83;;
21152;SDS011;10734;44.792;20.482;2023-05-07T11:21:37;6.55;;;2.70;;
21152;SDS011;10734;44.792;20.482;2023-05-07T11:24:07;8.60;;;3.90;;
21152;SDS011;10734;44.792;20.482;2023-05-07T11:26:44;5.20;;;3.10;;
21152;SDS011;10734;44.792;20.482;2023-05-07T11:29:17;8.35;;;3.78;;
21152;SDS011;10734;44.792;20.482;2023-05-07T11:31:48;22.35;;;15.13;;
21152;SDS011;10734;44.792;20.482;2023-05-07T11:34:20;14.23;;;8.52;;
21152;SDS011;10734;44.792;20.482;2023-05-07T11:36:49;9.77;;;7.05;;
21152;SDS011;10734;44.792;20.482;2023-05-07T11:39:23;18.73;;;14.15;;
21152;SDS011;10734;44.792;20.482;2023-05-07T11:41:51;8.57;;;5.50;;
21152;SDS011;10734;44.792;20.482;2023-05-07T11:44:18;4.38;;;3.08;;
21152;SDS011;10734;44.792;20.482;2023-05-07T11:46:45;5.13;;;2.55;;
21152;SDS011;10734;44.792;20.482;2023-05-07T11:49:12;2.80;;;2.28;;
21152;SDS011;10734;44.792;20.482;2023-05-07T11:51:39;12.10;;;8.93;;
21152;SDS011;10734;44.792;20.482;2023-05-07T11:54:08;6.57;;;5.68;;
21152;SDS011;10734;44.792;20.482;2023-05-07T11:56:37;38.42;;;29.58;;
21152;SDS011;10734;44.792;20.482;2023-05-07T11:59:05;98.53;;;76.28;;
21152;SDS011;10734;44.792;20.482;2023-05-07T12:01:34;71.10;;;55.25;;
21152;SDS011;10734;44.792;20.482;2023-05-07T12:04:02;51.50;;;40.65;;
21152;SDS011;10734;44.792;20.482;2023-05-07T12:06:30;37.13;;;26.73;;
21152;SDS011;10734;44.792;20.482;2023-05-07T12:08:57;66.40;;;55.65;;
21152;SDS011;10734;44.792;20.482;2023-05-07T12:11:25;93.25;;;75.95;;
21152;SDS011;10734;44.792;20.482;2023-05-07T12:13:53;31.58;;;26.10;;
21152;SDS011;10734;44.792;20.482;2023-05-07T12:16:24;20.13;;;17.17;;
21152;SDS011;10734;44.792;20.482;2023-05-07T12:18:51;30.65;;;25.80;;
21152;SDS011;10734;44.792;20.482;2023-05-07T12:21:21;7.57;;;6.10;;
21152;SDS011;10734;44.792;20.482;2023-05-07T12:23:49;60.00;;;24.15;;
21152;SDS011;10734;44.792;20.482;2023-05-07T12:26:16;6.35;;;2.90;;
21152;SDS011;10734;44.792;20.482;2023-05-07T12:28:45;2.90;;;2.10;;
21152;SDS011;10734;44.792;20.482;2023-05-07T12:31:13;3.53;;;2.35;;
21152;SDS011;10734;44.792;20.482;2023-05-07T12:33:41;3.78;;;2.35;;
21152;SDS011;10734;44.792;20.482;2023-05-07T12:36:08;5.15;;;2.30;;
21152;SDS011;10734;44.792;20.482;2023-05-07T12:38:36;3.75;;;2.30;;
21152;SDS011;10734;44.792;20.482;2023-05-07T12:41:06;4.55;;;2.55;;
21152;SDS011;10734;44.792;20.482;2023-05-07T12:43:34;2.83;;;2.05;;
21152;SDS011;10734;44.792;20.482;2023-05-07T12:46:03;16.45;;;2.53;;
21152;SDS011;10734;44.792;20.482;2023-05-07T12:48:33;2.88;;;2.10;;
21152;SDS011;10734;44.792;20.482;2023-05-07T12:51:02;5.43;;;2.90;;
21152;SDS011;10734;44.792;20.482;2023-05-07T12:53:31;3.63;;;2.35;;
21152;SDS011;10734;44.792;20.482;2023-05-07T12:55:58;4.53;;;2.60;;
21152;SDS011;10734;44.792;20.482;2023-05-07T12:58:29;3.10;;;2.80;;
21152;SDS011;10734;44.792;20.482;2023-05-07T13:00:59;3.00;;;2.30;;
21152;SDS011;10734;44.792;20.482;2023-05-07T13:03:28;2.67;;;2.33;;
21152;SDS011;10734;44.792;20.482;2023-05-07T13:05:58;3.47;;;2.30;;
21152;SDS011;10734;44.792;20.482;2023-05-07T13:08:30;5.72;;;2.35;;
21152;SDS011;10734;44.792;20.482;2023-05-07T13:10:58;4.20;;;2.47;;
21152;SDS011;10734;44.792;20.482;2023-05-07T13:15:57;4.15;;;2.60;;
21152;SDS011;10734;44.792;20.482;2023-05-07T13:18:25;2.60;;;2.33;;
21152;SDS011;10734;44.792;20.482;2023-05-07T13:20:53;5.90;;;2.50;;
21152;SDS011;10734;44.792;20.482;2023-05-07T13:23:20;3.80;;;2.35;;
21152;SDS011;10734;44.792;20.482;2023-05-07T13:25:47;2.80;;;2.10;;
21152;SDS011;10734;44.792;20.482;2023-05-07T13:28:15;3.30;;;1.83;;
21152;SDS011;10734;44.792;20.482;2023-05-07T13:30:42;4.68;;;2.40;;
21152;SDS011;10734;44.792;20.482;2023-05-07T13:33:09;3.00;;;2.50;;
21152;SDS011;10734;44.792;20.482;2023-05-07T13:35:35;5.75;;;2.70;;
21152;SDS011;10734;44.792;20.482;2023-05-07T13:38:02;4.97;;;2.72;;
21152;SDS011;10734;44.792;20.482;2023-05-07T13:40:29;3.33;;;2.30;;
21152;SDS011;10734;44.792;20.482;2023-05-07T13:42:57;4.53;;;2.83;;
21152;SDS011;10734;44.792;20.482;2023-05-07T13:45:24;9.75;;;3.08;;
21152;SDS011;10734;44.792;20.482;2023-05-07T13:47:52;6.20;;;2.70;;
21152;SDS011;10734;44.792;20.482;2023-05-07T13:50:19;4.05;;;2.22;;
21152;SDS011;10734;44.792;20.482;2023-05-07T13:52:45;4.70;;;2.45;;
21152;SDS011;10734;44.792;20.482;2023-05-07T13:55:17;6.80;;;2.10;;
21152;SDS011;10734;44.792;20.482;2023-05-07T13:57:44;6.45;;;2.22;;
21152;SDS011;10734;44.792;20.482;2023-05-07T14:00:12;6.68;;;2.15;;
21152;SDS011;10734;44.792;20.482;2023-05-07T14:02:40;6.88;;;2.17;;
21152;SDS011;10734;44.792;20.482;2023-05-07T14:05:07;4.07;;;2.42;;
21152;SDS011;10734;44.792;20.482;2023-05-07T14:07:35;4.60;;;2.40;;
21152;SDS011;10734;44.792;20.482;2023-05-07T14:10:02;4.10;;;2.20;;
21152;SDS011;10734;44.792;20.482;2023-05-07T14:12:29;4.15;;;2.15;;
21152;SDS011;10734;44.792;20.482;2023-05-07T14:14:56;3.67;;;2.40;;
21152;SDS011;10734;44.792;20.482;2023-05-07T14:17:23;3.08;;;2.33;;
21152;SDS011;10734;44.792;20.482;2023-05-07T14:19:51;3.95;;;2.58;;
21152;SDS011;10734;44.792;20.482;2023-05-07T14:22:22;4.63;;;2.40;;
21152;SDS011;10734;44.792;20.482;2023-05-07T14:24:49;4.63;;;2.00;;
21152;SDS011;10734;44.792;20.482;2023-05-07T14:27:36;6.68;;;2.17;;
21152;SDS011;10734;44.792;20.482;2023-05-07T14:30:03;7.88;;;2.50;;
21152;SDS011;10734;44.792;20.482;2023-05-07T14:32:30;6.78;;;2.30;;
21152;SDS011;10734;44.792;20.482;2023-05-07T14:34:58;2.60;;;1.67;;
21152;SDS011;10734;44.792;20.482;2023-05-07T14:37:25;2.30;;;1.88;;
21152;SDS011;10734;44.792;20.482;2023-05-07T14:39:51;4.72;;;2.22;;
21152;SDS011;10734;44.792;20.482;2023-05-07T14:42:18;3.33;;;2.00;;
21152;SDS011;10734;44.792;20.482;2023-05-07T14:44:45;4.53;;;2.40;;
21152;SDS011;10734;44.792;20.482;2023-05-07T14:47:12;3.72;;;2.10;;
21152;SDS011;10734;44.792;20.482;2023-05-07T14:49:39;5.15;;;2.40;;